sensor_id;sensor_type;location;lat;lon;timestamp;P1;durP1;ratioP1;P2;durP2;ratioP2
2338;SDS011;1180;51.438;6.978;2022-08-27T00:00:39;5.47;;;4.60;;
2338;SDS011;1180;51.438;6.978;2022-08-27T00:03:05;7.30;;;4.53;;
2338;SDS011;1180;51.438;6.978;2022-08-27T00:05:30;7.37;;;4.93;;
2338;SDS011;1180;51.438;6.978;2022-08-27T00:07:56;4.77;;;3.20;;
2338;SDS011;1180;51.438;6.978;2022-08-27T00:10:23;10.00;;;4.03;;
2338;SDS011;1180;51.438;6.978;2022-08-27T00:12:50;4.30;;;3.53;;
2338;SDS011;1180;51.438;6.978;2022-08-27T00:15:16;4.97;;;3.27;;
2338;SDS011;1180;51.438;6.978;2022-08-27T00:17:42;8.77;;;3.20;;
2338;SDS011;1180;51.438;6.978;2022-08-27T00:20:09;9.13;;;4.30;;
2338;SDS011;1180;51.438;6.978;2022-08-27T00:22:36;9.83;;;4.10;;
2338;SDS011;1180;51.438;6.978;2022-08-27T00:25:02;6.63;;;3.83;;
2338;SDS011;1180;51.438;6.978;2022-08-27T00:27:29;5.53;;;3.57;;
2338;SDS011;1180;51.438;6.978;2022-08-27T00:29:54;7.30;;;3.60;;
2338;SDS011;1180;51.438;6.978;2022-08-27T00:32:20;5.87;;;3.57;;
2338;SDS011;1180;51.438;6.978;2022-08-27T00:34:45;6.40;;;3.60;;
2338;SDS011;1180;51.438;6.978;2022-08-27T00:37:10;7.93;;;4.10;;
2338;SDS011;1180;51.438;6.978;2022-08-27T00:39:36;4.90;;;2.20;;
2338;SDS011;1180;51.438;6.978;2022-08-27T00:42:02;5.77;;;3.20;;
2338;SDS011;1180;51.438;6.978;2022-08-27T00:44:28;11.63;;;4.03;;
2338;SDS011;1180;51.438;6.978;2022-08-27T00:46:57;2.87;;;2.53;;
2338;SDS011;1180;51.438;6.978;2022-08-27T00:49:28;6.47;;;2.47;;
2338;SDS011;1180;51.438;6.978;2022-08-27T00:52:05;3.27;;;2.93;;
2338;SDS011;1180;51.438;6.978;2022-08-27T00:54:41;8.93;;;3.30;;
2338;SDS011;1180;51.438;6.978;2022-08-27T00:57:06;4.80;;;3.03;;
2338;SDS011;1180;51.438;6.978;2022-08-27T00:59:32;5.27;;;3.10;;
2338;SDS011;1180;51.438;6.978;2022-08-27T01:01:58;5.37;;;2.43;;
2338;SDS011;1180;51.438;6.978;2022-08-27T01:04:43;5.73;;;2.83;;
2338;SDS011;1180;51.438;6.978;2022-08-27T01:07:16;4.50;;;3.10;;
2338;SDS011;1180;51.438;6.978;2022-08-27T01:09:43;5.00;;;2.97;;
2338;SDS011;1180;51.438;6.978;2022-08-27T01:12:12;6.33;;;2.97;;
2338;SDS011;1180;51.438;6.978;2022-08-27T01:14:38;3.40;;;2.63;;
2338;SDS011;1180;51.438;6.978;2022-08-27T01:17:05;5.17;;;3.03;;
2338;SDS011;1180;51.438;6.978;2022-08-27T01:22:52;7.33;;;3.50;;
2338;SDS011;1180;51.438;6.978;2022-08-27T01:24:53;4.40;;;2.93;;
2338;SDS011;1180;51.438;6.978;2022-08-27T01:27:23;5.10;;;2.40;;
2338;SDS011;1180;51.438;6.978;2022-08-27T01:29:52;4.07;;;3.00;;
2338;SDS011;1180;51.438;6.978;2022-08-27T01:32:29;6.10;;;3.00;;
2338;SDS011;1180;51.438;6.978;2022-08-27T01:34:56;4.67;;;2.90;;
2338;SDS011;1180;51.438;6.978;2022-08-27T01:37:23;6.93;;;2.17;;
2338;SDS011;1180;51.438;6.978;2022-08-27T01:39:50;5.07;;;2.60;;
2338;SDS011;1180;51.438;6.978;2022-08-27T01:42:18;6.10;;;3.50;;
2338;SDS011;1180;51.438;6.978;2022-08-27T01:44:48;5.73;;;3.17;;
2338;SDS011;1180;51.438;6.978;2022-08-27T01:47:17;4.30;;;2.73;;
2338;SDS011;1180;51.438;6.978;2022-08-27T01:49:43;7.67;;;2.67;;
2338;SDS011;1180;51.438;6.978;2022-08-27T01:52:08;5.13;;;3.13;;
2338;SDS011;1180;51.438;6.978;2022-08-27T01:54:34;5.40;;;3.10;;
2338;SDS011;1180;51.438;6.978;2022-08-27T01:56:59;8.80;;;2.90;;
2338;SDS011;1180;51.438;6.978;2022-08-27T01:59:25;5.13;;;3.03;;
2338;SDS011;1180;51.438;6.978;2022-08-27T02:01:51;5.63;;;2.43;;
2338;SDS011;1180;51.438;6.978;2022-08-27T02:04:18;4.43;;;2.93;;
2338;SDS011;1180;51.438;6.978;2022-08-27T02:06:44;6.73;;;3.30;;
2338;SDS011;1180;51.438;6.978;2022-08-27T02:09:10;4.80;;;2.70;;
2338;SDS011;1180;51.438;6.978;2022-08-27T02:11:36;4.10;;;2.67;;
2338;SDS011;1180;51.438;6.978;2022-08-27T02:14:02;4.20;;;2.90;;
2338;SDS011;1180;51.438;6.978;2022-08-27T02:16:27;6.40;;;2.87;;
2338;SDS011;1180;51.438;6.978;2022-08-27T02:18:52;7.27;;;2.97;;
2338;SDS011;1180;51.438;6.978;2022-08-27T02:21:18;5.23;;;2.97;;
2338;SDS011;1180;51.438;6.978;2022-08-27T02:23:44;4.97;;;3.17;;
2338;SDS011;1180;51.438;6.978;2022-08-27T02:26:10;6.40;;;2.43;;
2338;SDS011;1180;51.438;6.978;2022-08-27T02:28:35;10.43;;;2.20;;
2338;SDS011;1180;51.438;6.978;2022-08-27T02:31:01;4.23;;;2.40;;
2338;SDS011;1180;51.438;6.978;2022-08-27T02:33:27;6.60;;;2.47;;
2338;SDS011;1180;51.438;6.978;2022-08-27T02:35:52;10.30;;;2.90;;
2338;SDS011;1180;51.438;6.978;2022-08-27T02:38:18;9.30;;;3.53;;
2338;SDS011;1180;51.438;6.978;2022-08-27T02:40:44;8.70;;;2.50;;
2338;SDS011;1180;51.438;6.978;2022-08-27T02:43:10;4.30;;;2.47;;
2338;SDS011;1180;51.438;6.978;2022-08-27T02:45:36;8.17;;;2.60;;
2338;SDS011;1180;51.438;6.978;2022-08-27T02:48:02;6.23;;;2.87;;
2338;SDS011;1180;51.438;6.978;2022-08-27T02:50:28;6.93;;;2.77;;
2338;SDS011;1180;51.438;6.978;2022-08-27T02:52:54;6.60;;;2.83;;
2338;SDS011;1180;51.438;6.978;2022-08-27T02:55:20;4.83;;;2.53;;
2338;SDS011;1180;51.438;6.978;2022-08-27T02:57:46;4.03;;;2.40;;
2338;SDS011;1180;51.438;6.978;2022-08-27T03:00:14;5.67;;;2.43;;
2338;SDS011;1180;51.438;6.978;2022-08-27T03:02:42;8.37;;;2.67;;
2338;SDS011;1180;51.438;6.978;2022-08-27T03:05:09;7.30;;;2.57;;
2338;SDS011;1180;51.438;6.978;2022-08-27T03:07:36;16.23;;;3.30;;
2338;SDS011;1180;51.438;6.978;2022-08-27T03:10:02;6.13;;;2.67;;
2338;SDS011;1180;51.438;6.978;2022-08-27T03:12:29;6.37;;;2.80;;
2338;SDS011;1180;51.438;6.978;2022-08-27T03:14:56;3.13;;;2.23;;
2338;SDS011;1180;51.438;6.978;2022-08-27T03:17:21;8.63;;;2.70;;
2338;SDS011;1180;51.438;6.978;2022-08-27T03:20:06;4.90;;;2.10;;
2338;SDS011;1180;51.438;6.978;2022-08-27T03:22:32;8.50;;;3.10;;
2338;SDS011;1180;51.438;6.978;2022-08-27T03:25:00;6.63;;;2.70;;
2338;SDS011;1180;51.438;6.978;2022-08-27T03:27:26;3.40;;;2.60;;
2338;SDS011;1180;51.438;6.978;2022-08-27T03:29:51;7.67;;;2.60;;
2338;SDS011;1180;51.438;6.978;2022-08-27T03:32:17;4.03;;;2.50;;
2338;SDS011;1180;51.438;6.978;2022-08-27T03:34:42;8.23;;;3.13;;
2338;SDS011;1180;51.438;6.978;2022-08-27T03:37:07;7.20;;;3.40;;
2338;SDS011;1180;51.438;6.978;2022-08-27T03:39:33;4.00;;;3.17;;
2338;SDS011;1180;51.438;6.978;2022-08-27T03:41:58;4.23;;;2.33;;
2338;SDS011;1180;51.438;6.978;2022-08-27T03:44:23;7.27;;;3.03;;
2338;SDS011;1180;51.438;6.978;2022-08-27T03:46:52;7.50;;;3.53;;
2338;SDS011;1180;51.438;6.978;2022-08-27T03:49:18;9.47;;;4.03;;
2338;SDS011;1180;51.438;6.978;2022-08-27T03:51:45;6.70;;;3.23;;
2338;SDS011;1180;51.438;6.978;2022-08-27T03:54:10;4.07;;;2.83;;
2338;SDS011;1180;51.438;6.978;2022-08-27T03:56:36;5.80;;;2.70;;
2338;SDS011;1180;51.438;6.978;2022-08-27T03:59:04;3.40;;;2.80;;
2338;SDS011;1180;51.438;6.978;2022-08-27T04:01:30;4.10;;;2.80;;
2338;SDS011;1180;51.438;6.978;2022-08-27T04:03:56;6.80;;;2.43;;
2338;SDS011;1180;51.438;6.978;2022-08-27T04:06:21;4.90;;;3.10;;
2338;SDS011;1180;51.438;6.978;2022-08-27T04:08:47;5.23;;;3.27;;
2338;SDS011;1180;51.438;6.978;2022-08-27T04:11:12;9.77;;;3.80;;
2338;SDS011;1180;51.438;6.978;2022-08-27T04:13:37;6.93;;;3.00;;
2338;SDS011;1180;51.438;6.978;2022-08-27T04:16:04;7.40;;;3.20;;
2338;SDS011;1180;51.438;6.978;2022-08-27T04:18:30;9.80;;;3.50;;
2338;SDS011;1180;51.438;6.978;2022-08-27T04:20:56;4.07;;;2.53;;
2338;SDS011;1180;51.438;6.978;2022-08-27T04:23:22;5.83;;;2.63;;
2338;SDS011;1180;51.438;6.978;2022-08-27T04:25:47;7.23;;;3.30;;
2338;SDS011;1180;51.438;6.978;2022-08-27T04:28:13;5.10;;;2.93;;
2338;SDS011;1180;51.438;6.978;2022-08-27T04:30:40;6.37;;;3.27;;
2338;SDS011;1180;51.438;6.978;2022-08-27T04:33:09;5.60;;;3.30;;
2338;SDS011;1180;51.438;6.978;2022-08-27T04:35:35;4.73;;;2.90;;
2338;SDS011;1180;51.438;6.978;2022-08-27T04:38:01;5.83;;;3.27;;
2338;SDS011;1180;51.438;6.978;2022-08-27T04:40:27;8.90;;;3.37;;
2338;SDS011;1180;51.438;6.978;2022-08-27T04:43:13;8.70;;;2.50;;
2338;SDS011;1180;51.438;6.978;2022-08-27T04:45:43;3.67;;;2.67;;
2338;SDS011;1180;51.438;6.978;2022-08-27T04:48:11;5.40;;;2.70;;
2338;SDS011;1180;51.438;6.978;2022-08-27T04:50:42;3.87;;;2.93;;
2338;SDS011;1180;51.438;6.978;2022-08-27T04:53:09;3.60;;;2.60;;
2338;SDS011;1180;51.438;6.978;2022-08-27T04:55:45;5.77;;;2.47;;
2338;SDS011;1180;51.438;6.978;2022-08-27T04:58:13;4.60;;;3.20;;
2338;SDS011;1180;51.438;6.978;2022-08-27T05:00:42;5.73;;;3.10;;
2338;SDS011;1180;51.438;6.978;2022-08-27T05:03:11;2.53;;;2.33;;
2338;SDS011;1180;51.438;6.978;2022-08-27T05:05:36;5.50;;;3.00;;
2338;SDS011;1180;51.438;6.978;2022-08-27T05:08:02;5.63;;;3.00;;
2338;SDS011;1180;51.438;6.978;2022-08-27T05:10:30;6.60;;;3.30;;
2338;SDS011;1180;51.438;6.978;2022-08-27T05:13:03;7.37;;;3.03;;
2338;SDS011;1180;51.438;6.978;2022-08-27T05:15:28;5.33;;;2.70;;
2338;SDS011;1180;51.438;6.978;2022-08-27T05:17:54;4.23;;;2.43;;
2338;SDS011;1180;51.438;6.978;2022-08-27T05:20:24;3.87;;;3.10;;
2338;SDS011;1180;51.438;6.978;2022-08-27T05:22:50;7.33;;;3.83;;
2338;SDS011;1180;51.438;6.978;2022-08-27T05:25:15;7.30;;;3.43;;
2338;SDS011;1180;51.438;6.978;2022-08-27T05:27:41;3.47;;;3.03;;
2338;SDS011;1180;51.438;6.978;2022-08-27T05:30:06;7.50;;;3.20;;
2338;SDS011;1180;51.438;6.978;2022-08-27T05:32:32;8.10;;;3.20;;
2338;SDS011;1180;51.438;6.978;2022-08-27T05:34:57;4.93;;;3.10;;
2338;SDS011;1180;51.438;6.978;2022-08-27T05:37:23;13.00;;;4.07;;
2338;SDS011;1180;51.438;6.978;2022-08-27T05:39:48;6.00;;;3.70;;
2338;SDS011;1180;51.438;6.978;2022-08-27T05:42:13;10.70;;;3.30;;
2338;SDS011;1180;51.438;6.978;2022-08-27T05:44:39;4.17;;;3.07;;
2338;SDS011;1180;51.438;6.978;2022-08-27T05:47:04;5.43;;;3.70;;
2338;SDS011;1180;51.438;6.978;2022-08-27T05:49:30;5.93;;;3.10;;
2338;SDS011;1180;51.438;6.978;2022-08-27T05:51:55;4.13;;;3.03;;
2338;SDS011;1180;51.438;6.978;2022-08-27T05:54:21;6.50;;;3.33;;
2338;SDS011;1180;51.438;6.978;2022-08-27T05:56:48;6.87;;;2.97;;
2338;SDS011;1180;51.438;6.978;2022-08-27T05:59:14;7.07;;;3.37;;
2338;SDS011;1180;51.438;6.978;2022-08-27T06:01:58;4.40;;;3.20;;
2338;SDS011;1180;51.438;6.978;2022-08-27T06:04:23;3.73;;;2.60;;
2338;SDS011;1180;51.438;6.978;2022-08-27T06:06:50;5.10;;;3.27;;
2338;SDS011;1180;51.438;6.978;2022-08-27T06:09:23;5.00;;;3.30;;
2338;SDS011;1180;51.438;6.978;2022-08-27T06:11:52;4.63;;;3.40;;
2338;SDS011;1180;51.438;6.978;2022-08-27T06:14:18;3.67;;;2.80;;
2338;SDS011;1180;51.438;6.978;2022-08-27T06:16:43;5.20;;;3.27;;
2338;SDS011;1180;51.438;6.978;2022-08-27T06:19:09;4.77;;;3.43;;
2338;SDS011;1180;51.438;6.978;2022-08-27T06:21:38;5.40;;;3.23;;
2338;SDS011;1180;51.438;6.978;2022-08-27T06:24:06;10.13;;;3.38;;
2338;SDS011;1180;51.438;6.978;2022-08-27T06:26:32;3.63;;;2.27;;
2338;SDS011;1180;51.438;6.978;2022-08-27T06:29:00;6.27;;;3.73;;
2338;SDS011;1180;51.438;6.978;2022-08-27T06:31:30;6.90;;;2.37;;
2338;SDS011;1180;51.438;6.978;2022-08-27T06:33:58;6.73;;;3.40;;
2338;SDS011;1180;51.438;6.978;2022-08-27T06:36:25;3.73;;;2.57;;
2338;SDS011;1180;51.438;6.978;2022-08-27T06:38:51;4.80;;;2.93;;
2338;SDS011;1180;51.438;6.978;2022-08-27T06:41:20;5.00;;;4.03;;
2338;SDS011;1180;51.438;6.978;2022-08-27T06:43:47;5.40;;;3.50;;
2338;SDS011;1180;51.438;6.978;2022-08-27T06:46:14;8.33;;;3.60;;
2338;SDS011;1180;51.438;6.978;2022-08-27T06:48:41;8.50;;;2.90;;
2338;SDS011;1180;51.438;6.978;2022-08-27T06:51:13;3.67;;;2.87;;
2338;SDS011;1180;51.438;6.978;2022-08-27T06:53:41;4.87;;;3.33;;
2338;SDS011;1180;51.438;6.978;2022-08-27T06:56:08;6.17;;;2.97;;
2338;SDS011;1180;51.438;6.978;2022-08-27T06:58:35;5.83;;;4.10;;
2338;SDS011;1180;51.438;6.978;2022-08-27T07:01:09;9.03;;;4.00;;
2338;SDS011;1180;51.438;6.978;2022-08-27T07:03:36;4.60;;;2.70;;
2338;SDS011;1180;51.438;6.978;2022-08-27T07:06:02;9.40;;;4.10;;
2338;SDS011;1180;51.438;6.978;2022-08-27T07:08:29;8.10;;;3.33;;
2338;SDS011;1180;51.438;6.978;2022-08-27T07:10:58;5.53;;;3.60;;
2338;SDS011;1180;51.438;6.978;2022-08-27T07:13:23;8.23;;;3.50;;
2338;SDS011;1180;51.438;6.978;2022-08-27T07:15:49;9.30;;;4.30;;
2338;SDS011;1180;51.438;6.978;2022-08-27T07:18:15;5.60;;;3.10;;
2338;SDS011;1180;51.438;6.978;2022-08-27T07:20:41;8.03;;;3.40;;
2338;SDS011;1180;51.438;6.978;2022-08-27T07:23:07;6.87;;;3.40;;
2338;SDS011;1180;51.438;6.978;2022-08-27T07:25:32;4.00;;;3.20;;
2338;SDS011;1180;51.438;6.978;2022-08-27T07:27:58;5.47;;;3.10;;
2338;SDS011;1180;51.438;6.978;2022-08-27T07:30:24;3.80;;;3.23;;
2338;SDS011;1180;51.438;6.978;2022-08-27T07:32:50;5.73;;;2.90;;
2338;SDS011;1180;51.438;6.978;2022-08-27T07:35:16;4.43;;;2.90;;
2338;SDS011;1180;51.438;6.978;2022-08-27T07:37:42;7.13;;;3.40;;
2338;SDS011;1180;51.438;6.978;2022-08-27T07:40:09;5.73;;;3.10;;
2338;SDS011;1180;51.438;6.978;2022-08-27T07:42:36;6.00;;;3.60;;
2338;SDS011;1180;51.438;6.978;2022-08-27T07:45:21;8.50;;;3.70;;
2338;SDS011;1180;51.438;6.978;2022-08-27T07:47:49;8.27;;;3.40;;
2338;SDS011;1180;51.438;6.978;2022-08-27T07:50:15;3.57;;;2.50;;
2338;SDS011;1180;51.438;6.978;2022-08-27T07:52:42;6.47;;;3.03;;
2338;SDS011;1180;51.438;6.978;2022-08-27T07:55:08;4.40;;;2.20;;
2338;SDS011;1180;51.438;6.978;2022-08-27T07:57:38;5.30;;;2.87;;
2338;SDS011;1180;51.438;6.978;2022-08-27T08:00:05;4.87;;;2.47;;
2338;SDS011;1180;51.438;6.978;2022-08-27T08:02:35;4.23;;;2.23;;
2338;SDS011;1180;51.438;6.978;2022-08-27T08:05:01;3.60;;;2.50;;
2338;SDS011;1180;51.438;6.978;2022-08-27T08:07:28;6.50;;;2.70;;
2338;SDS011;1180;51.438;6.978;2022-08-27T08:09:59;9.20;;;3.50;;
2338;SDS011;1180;51.438;6.978;2022-08-27T08:12:25;4.07;;;2.70;;
2338;SDS011;1180;51.438;6.978;2022-08-27T08:14:51;6.07;;;3.23;;
2338;SDS011;1180;51.438;6.978;2022-08-27T08:17:23;7.03;;;3.00;;
2338;SDS011;1180;51.438;6.978;2022-08-27T08:19:49;6.00;;;2.50;;
2338;SDS011;1180;51.438;6.978;2022-08-27T08:22:15;3.77;;;2.70;;
2338;SDS011;1180;51.438;6.978;2022-08-27T08:24:41;4.80;;;2.80;;
2338;SDS011;1180;51.438;6.978;2022-08-27T08:27:06;2.73;;;2.33;;
2338;SDS011;1180;51.438;6.978;2022-08-27T08:29:35;5.07;;;3.20;;
2338;SDS011;1180;51.438;6.978;2022-08-27T08:32:03;4.37;;;2.37;;
2338;SDS011;1180;51.438;6.978;2022-08-27T08:34:29;5.93;;;3.10;;
2338;SDS011;1180;51.438;6.978;2022-08-27T08:36:55;5.00;;;2.57;;
2338;SDS011;1180;51.438;6.978;2022-08-27T08:39:20;7.70;;;3.07;;
2338;SDS011;1180;51.438;6.978;2022-08-27T08:41:48;9.80;;;2.80;;
2338;SDS011;1180;51.438;6.978;2022-08-27T08:46:47;4.63;;;2.57;;
2338;SDS011;1180;51.438;6.978;2022-08-27T08:55:00;3.50;;;2.20;;
2338;SDS011;1180;51.438;6.978;2022-08-27T08:57:35;12.23;;;2.50;;
2338;SDS011;1180;51.438;6.978;2022-08-27T09:00:12;7.77;;;2.63;;
2338;SDS011;1180;51.438;6.978;2022-08-27T09:02:38;4.77;;;2.70;;
2338;SDS011;1180;51.438;6.978;2022-08-27T09:05:07;4.50;;;2.87;;
2338;SDS011;1180;51.438;6.978;2022-08-27T09:07:44;6.77;;;3.43;;
2338;SDS011;1180;51.438;6.978;2022-08-27T09:10:41;4.30;;;2.43;;
2338;SDS011;1180;51.438;6.978;2022-08-27T09:13:28;8.23;;;2.77;;
2338;SDS011;1180;51.438;6.978;2022-08-27T09:16:02;7.07;;;2.77;;
2338;SDS011;1180;51.438;6.978;2022-08-27T09:18:28;5.83;;;4.00;;
2338;SDS011;1180;51.438;6.978;2022-08-27T09:21:05;4.57;;;2.43;;
2338;SDS011;1180;51.438;6.978;2022-08-27T09:26:31;6.00;;;2.60;;
2338;SDS011;1180;51.438;6.978;2022-08-27T09:28:59;4.80;;;2.67;;
2338;SDS011;1180;51.438;6.978;2022-08-27T09:34:18;6.03;;;2.67;;
2338;SDS011;1180;51.438;6.978;2022-08-27T09:36:54;5.93;;;2.40;;
2338;SDS011;1180;51.438;6.978;2022-08-27T09:39:27;3.20;;;2.30;;
2338;SDS011;1180;51.438;6.978;2022-08-27T09:41:57;8.50;;;2.53;;
2338;SDS011;1180;51.438;6.978;2022-08-27T09:44:23;8.60;;;3.27;;
2338;SDS011;1180;51.438;6.978;2022-08-27T09:46:53;7.60;;;3.10;;
2338;SDS011;1180;51.438;6.978;2022-08-27T09:49:23;3.37;;;2.57;;
2338;SDS011;1180;51.438;6.978;2022-08-27T09:51:50;6.13;;;3.00;;
2338;SDS011;1180;51.438;6.978;2022-08-27T09:57:04;4.77;;;2.83;;
2338;SDS011;1180;51.438;6.978;2022-08-27T09:59:39;6.53;;;2.70;;
2338;SDS011;1180;51.438;6.978;2022-08-27T10:02:17;4.37;;;3.20;;
2338;SDS011;1180;51.438;6.978;2022-08-27T10:04:48;3.73;;;3.30;;
2338;SDS011;1180;51.438;6.978;2022-08-27T10:07:42;6.13;;;3.43;;
2338;SDS011;1180;51.438;6.978;2022-08-27T10:10:23;7.83;;;3.63;;
2338;SDS011;1180;51.438;6.978;2022-08-27T10:13:12;4.00;;;2.77;;
2338;SDS011;1180;51.438;6.978;2022-08-27T10:16:06;9.13;;;3.60;;
2338;SDS011;1180;51.438;6.978;2022-08-27T10:18:47;4.10;;;3.10;;
2338;SDS011;1180;51.438;6.978;2022-08-27T10:27:02;6.67;;;3.80;;
2338;SDS011;1180;51.438;6.978;2022-08-27T10:30:04;2.83;;;2.53;;
2338;SDS011;1180;51.438;6.978;2022-08-27T10:35:13;6.07;;;2.93;;
2338;SDS011;1180;51.438;6.978;2022-08-27T10:49:08;4.60;;;2.63;;
2338;SDS011;1180;51.438;6.978;2022-08-27T10:51:56;10.53;;;3.23;;
2338;SDS011;1180;51.438;6.978;2022-08-27T11:03:19;4.00;;;2.70;;
2338;SDS011;1180;51.438;6.978;2022-08-27T11:05:51;4.00;;;3.23;;
2338;SDS011;1180;51.438;6.978;2022-08-27T11:10:55;5.07;;;3.27;;
2338;SDS011;1180;51.438;6.978;2022-08-27T11:13:31;3.90;;;3.13;;
2338;SDS011;1180;51.438;6.978;2022-08-27T11:16:00;3.90;;;2.73;;
2338;SDS011;1180;51.438;6.978;2022-08-27T11:18:44;4.50;;;3.47;;
2338;SDS011;1180;51.438;6.978;2022-08-27T11:23:59;4.33;;;3.17;;
2338;SDS011;1180;51.438;6.978;2022-08-27T11:26:35;5.63;;;3.70;;
2338;SDS011;1180;51.438;6.978;2022-08-27T11:32:18;5.60;;;2.30;;
2338;SDS011;1180;51.438;6.978;2022-08-27T11:34:58;4.17;;;2.53;;
2338;SDS011;1180;51.438;6.978;2022-08-27T11:37:36;3.20;;;2.90;;
2338;SDS011;1180;51.438;6.978;2022-08-27T11:43:06;4.03;;;2.40;;
2338;SDS011;1180;51.438;6.978;2022-08-27T11:45:37;4.27;;;2.70;;
2338;SDS011;1180;51.438;6.978;2022-08-27T11:50:59;4.10;;;2.57;;
2338;SDS011;1180;51.438;6.978;2022-08-27T11:53:34;3.40;;;2.70;;
2338;SDS011;1180;51.438;6.978;2022-08-27T11:56:32;4.93;;;2.73;;
2338;SDS011;1180;51.438;6.978;2022-08-27T11:59:07;4.10;;;3.37;;
2338;SDS011;1180;51.438;6.978;2022-08-27T12:01:45;5.40;;;3.20;;
2338;SDS011;1180;51.438;6.978;2022-08-27T12:06:51;5.10;;;3.30;;
2338;SDS011;1180;51.438;6.978;2022-08-27T12:09:25;5.60;;;3.10;;
2338;SDS011;1180;51.438;6.978;2022-08-27T12:20:19;3.50;;;2.27;;
2338;SDS011;1180;51.438;6.978;2022-08-27T12:28:52;4.13;;;2.33;;
2338;SDS011;1180;51.438;6.978;2022-08-27T12:31:40;3.40;;;2.10;;
2338;SDS011;1180;51.438;6.978;2022-08-27T12:34:13;4.93;;;2.33;;
2338;SDS011;1180;51.438;6.978;2022-08-27T12:36:41;4.13;;;2.47;;
2338;SDS011;1180;51.438;6.978;2022-08-27T12:39:13;4.13;;;2.00;;
2338;SDS011;1180;51.438;6.978;2022-08-27T12:41:43;7.77;;;2.30;;
2338;SDS011;1180;51.438;6.978;2022-08-27T12:44:12;3.27;;;2.73;;
2338;SDS011;1180;51.438;6.978;2022-08-27T12:49:40;3.30;;;1.70;;
2338;SDS011;1180;51.438;6.978;2022-08-27T12:55:04;2.50;;;2.10;;
2338;SDS011;1180;51.438;6.978;2022-08-27T13:00:18;3.37;;;3.07;;
2338;SDS011;1180;51.438;6.978;2022-08-27T13:05:50;4.73;;;2.50;;
2338;SDS011;1180;51.438;6.978;2022-08-27T13:08:33;2.13;;;1.87;;
2338;SDS011;1180;51.438;6.978;2022-08-27T13:11:09;4.47;;;2.63;;
2338;SDS011;1180;51.438;6.978;2022-08-27T13:13:38;5.10;;;2.37;;
2338;SDS011;1180;51.438;6.978;2022-08-27T13:16:04;2.80;;;2.13;;
2338;SDS011;1180;51.438;6.978;2022-08-27T13:18:30;4.33;;;2.63;;
2338;SDS011;1180;51.438;6.978;2022-08-27T13:21:00;3.10;;;2.33;;
2338;SDS011;1180;51.438;6.978;2022-08-27T13:23:33;3.07;;;2.13;;
2338;SDS011;1180;51.438;6.978;2022-08-27T13:26:04;4.47;;;2.13;;
2338;SDS011;1180;51.438;6.978;2022-08-27T13:28:29;8.13;;;2.23;;
2338;SDS011;1180;51.438;6.978;2022-08-27T13:30:56;4.47;;;1.87;;
2338;SDS011;1180;51.438;6.978;2022-08-27T13:33:24;5.07;;;2.77;;
2338;SDS011;1180;51.438;6.978;2022-08-27T13:35:55;3.97;;;3.20;;
2338;SDS011;1180;51.438;6.978;2022-08-27T13:38:21;2.33;;;1.80;;
2338;SDS011;1180;51.438;6.978;2022-08-27T13:43:27;2.97;;;1.70;;
2338;SDS011;1180;51.438;6.978;2022-08-27T13:48:47;5.97;;;2.23;;
2338;SDS011;1180;51.438;6.978;2022-08-27T13:51:15;3.43;;;1.80;;
2338;SDS011;1180;51.438;6.978;2022-08-27T13:53:58;6.50;;;2.20;;
2338;SDS011;1180;51.438;6.978;2022-08-27T13:59:15;4.93;;;2.80;;
2338;SDS011;1180;51.438;6.978;2022-08-27T14:04:46;4.87;;;1.83;;
2338;SDS011;1180;51.438;6.978;2022-08-27T14:07:14;5.30;;;2.20;;
2338;SDS011;1180;51.438;6.978;2022-08-27T14:09:45;2.80;;;1.67;;
2338;SDS011;1180;51.438;6.978;2022-08-27T14:12:25;3.70;;;2.33;;
2338;SDS011;1180;51.438;6.978;2022-08-27T14:14:53;6.40;;;3.10;;
2338;SDS011;1180;51.438;6.978;2022-08-27T14:17:36;3.60;;;2.27;;
2338;SDS011;1180;51.438;6.978;2022-08-27T14:20:03;1.60;;;1.50;;
2338;SDS011;1180;51.438;6.978;2022-08-27T14:22:30;2.40;;;1.93;;
2338;SDS011;1180;51.438;6.978;2022-08-27T14:24:59;4.07;;;2.00;;
2338;SDS011;1180;51.438;6.978;2022-08-27T14:27:25;3.03;;;1.80;;
2338;SDS011;1180;51.438;6.978;2022-08-27T14:29:52;3.40;;;1.70;;
2338;SDS011;1180;51.438;6.978;2022-08-27T14:32:18;4.93;;;2.17;;
2338;SDS011;1180;51.438;6.978;2022-08-27T14:34:44;3.03;;;2.07;;
2338;SDS011;1180;51.438;6.978;2022-08-27T14:37:11;3.83;;;1.63;;
2338;SDS011;1180;51.438;6.978;2022-08-27T14:39:38;2.03;;;1.60;;
2338;SDS011;1180;51.438;6.978;2022-08-27T14:42:05;4.67;;;2.10;;
2338;SDS011;1180;51.438;6.978;2022-08-27T14:44:31;4.70;;;2.37;;
2338;SDS011;1180;51.438;6.978;2022-08-27T14:46:56;4.23;;;2.00;;
2338;SDS011;1180;51.438;6.978;2022-08-27T14:49:29;3.63;;;2.23;;
2338;SDS011;1180;51.438;6.978;2022-08-27T14:51:58;6.07;;;1.93;;
2338;SDS011;1180;51.438;6.978;2022-08-27T14:54:24;5.80;;;2.30;;
2338;SDS011;1180;51.438;6.978;2022-08-27T14:56:50;2.90;;;1.90;;
2338;SDS011;1180;51.438;6.978;2022-08-27T14:59:15;3.70;;;1.80;;
2338;SDS011;1180;51.438;6.978;2022-08-27T15:01:41;3.47;;;1.83;;
2338;SDS011;1180;51.438;6.978;2022-08-27T15:04:06;2.53;;;1.67;;
2338;SDS011;1180;51.438;6.978;2022-08-27T15:06:32;3.23;;;1.87;;
2338;SDS011;1180;51.438;6.978;2022-08-27T15:08:58;3.80;;;2.10;;
2338;SDS011;1180;51.438;6.978;2022-08-27T15:11:24;6.50;;;2.40;;
2338;SDS011;1180;51.438;6.978;2022-08-27T15:13:53;4.13;;;2.13;;
2338;SDS011;1180;51.438;6.978;2022-08-27T15:16:30;4.07;;;2.03;;
2338;SDS011;1180;51.438;6.978;2022-08-27T15:18:59;3.30;;;2.10;;
2338;SDS011;1180;51.438;6.978;2022-08-27T15:21:25;2.40;;;2.20;;
2338;SDS011;1180;51.438;6.978;2022-08-27T15:24:15;4.00;;;1.80;;
2338;SDS011;1180;51.438;6.978;2022-08-27T15:26:43;1.97;;;1.73;;
2338;SDS011;1180;51.438;6.978;2022-08-27T15:29:09;3.80;;;2.10;;
2338;SDS011;1180;51.438;6.978;2022-08-27T15:31:34;2.60;;;1.60;;
2338;SDS011;1180;51.438;6.978;2022-08-27T15:34:00;3.17;;;1.70;;
2338;SDS011;1180;51.438;6.978;2022-08-27T15:36:26;3.63;;;2.07;;
2338;SDS011;1180;51.438;6.978;2022-08-27T15:38:52;4.27;;;2.10;;
2338;SDS011;1180;51.438;6.978;2022-08-27T15:41:18;8.47;;;2.27;;
2338;SDS011;1180;51.438;6.978;2022-08-27T15:43:44;2.87;;;2.13;;
2338;SDS011;1180;51.438;6.978;2022-08-27T15:46:09;3.87;;;1.80;;
2338;SDS011;1180;51.438;6.978;2022-08-27T15:48:35;4.03;;;2.23;;
2338;SDS011;1180;51.438;6.978;2022-08-27T15:51:02;10.63;;;2.23;;
2338;SDS011;1180;51.438;6.978;2022-08-27T15:53:30;4.30;;;2.07;;
2338;SDS011;1180;51.438;6.978;2022-08-27T15:55:56;6.10;;;2.30;;
2338;SDS011;1180;51.438;6.978;2022-08-27T15:58:21;5.77;;;1.70;;
2338;SDS011;1180;51.438;6.978;2022-08-27T16:00:47;8.20;;;2.43;;
2338;SDS011;1180;51.438;6.978;2022-08-27T16:03:13;7.33;;;2.30;;
2338;SDS011;1180;51.438;6.978;2022-08-27T16:05:40;3.50;;;2.20;;
2338;SDS011;1180;51.438;6.978;2022-08-27T16:08:08;3.83;;;2.00;;
2338;SDS011;1180;51.438;6.978;2022-08-27T16:10:34;3.17;;;2.20;;
2338;SDS011;1180;51.438;6.978;2022-08-27T16:12:59;5.90;;;2.40;;
2338;SDS011;1180;51.438;6.978;2022-08-27T16:15:25;3.73;;;2.20;;
2338;SDS011;1180;51.438;6.978;2022-08-27T16:17:51;3.87;;;1.87;;
2338;SDS011;1180;51.438;6.978;2022-08-27T16:20:20;2.83;;;2.30;;
2338;SDS011;1180;51.438;6.978;2022-08-27T16:22:48;4.30;;;2.90;;
2338;SDS011;1180;51.438;6.978;2022-08-27T16:25:14;6.60;;;3.60;;
2338;SDS011;1180;51.438;6.978;2022-08-27T16:27:40;3.30;;;2.70;;
2338;SDS011;1180;51.438;6.978;2022-08-27T16:30:05;3.90;;;3.00;;
2338;SDS011;1180;51.438;6.978;2022-08-27T16:32:32;4.83;;;2.40;;
2338;SDS011;1180;51.438;6.978;2022-08-27T16:34:58;3.70;;;2.00;;
2338;SDS011;1180;51.438;6.978;2022-08-27T16:37:24;4.47;;;2.77;;
2338;SDS011;1180;51.438;6.978;2022-08-27T16:39:50;7.03;;;2.77;;
2338;SDS011;1180;51.438;6.978;2022-08-27T16:42:15;6.23;;;2.20;;
2338;SDS011;1180;51.438;6.978;2022-08-27T16:44:41;3.17;;;2.07;;
2338;SDS011;1180;51.438;6.978;2022-08-27T16:47:06;5.87;;;2.30;;
2338;SDS011;1180;51.438;6.978;2022-08-27T16:49:32;9.43;;;2.50;;
2338;SDS011;1180;51.438;6.978;2022-08-27T16:52:16;4.83;;;2.30;;
2338;SDS011;1180;51.438;6.978;2022-08-27T16:54:41;3.10;;;2.57;;
2338;SDS011;1180;51.438;6.978;2022-08-27T16:57:07;3.30;;;2.87;;
2338;SDS011;1180;51.438;6.978;2022-08-27T16:59:32;5.77;;;3.20;;
2338;SDS011;1180;51.438;6.978;2022-08-27T17:01:58;3.80;;;2.20;;
2338;SDS011;1180;51.438;6.978;2022-08-27T17:04:23;5.97;;;2.40;;
2338;SDS011;1180;51.438;6.978;2022-08-27T17:06:50;4.30;;;2.50;;